sensor_id;sensor_type;location;lat;lon;timestamp;P1;durP1;ratioP1;P2;durP2;ratioP2
5199;SDS011;2619;47.868;11.892;2022-12-29T00:01:44;4.67;;;3.57;;
5199;SDS011;2619;47.868;11.892;2022-12-29T00:04:11;5.00;;;2.77;;
5199;SDS011;2619;47.868;11.892;2022-12-29T00:06:38;3.60;;;2.77;;
5199;SDS011;2619;47.868;11.892;2022-12-29T00:09:03;6.27;;;3.30;;
5199;SDS011;2619;47.868;11.892;2022-12-29T00:11:29;6.40;;;3.77;;
5199;SDS011;2619;47.868;11.892;2022-12-29T00:13:54;5.13;;;3.20;;
5199;SDS011;2619;47.868;11.892;2022-12-29T00:16:43;5.20;;;3.40;;
5199;SDS011;2619;47.868;11.892;2022-12-29T00:19:10;8.40;;;3.57;;
5199;SDS011;2619;47.868;11.892;2022-12-29T00:21:55;6.40;;;3.60;;
5199;SDS011;2619;47.868;11.892;2022-12-29T00:24:40;7.00;;;3.63;;
5199;SDS011;2619;47.868;11.892;2022-12-29T00:27:25;6.97;;;3.77;;
5199;SDS011;2619;47.868;11.892;2022-12-29T00:30:11;6.33;;;3.73;;
5199;SDS011;2619;47.868;11.892;2022-12-29T00:32:56;6.20;;;3.97;;
5199;SDS011;2619;47.868;11.892;2022-12-29T00:35:45;4.50;;;2.77;;
5199;SDS011;2619;47.868;11.892;2022-12-29T00:38:18;6.70;;;4.03;;
5199;SDS011;2619;47.868;11.892;2022-12-29T00:41:03;5.30;;;2.83;;
5199;SDS011;2619;47.868;11.892;2022-12-29T00:43:47;6.57;;;3.77;;
5199;SDS011;2619;47.868;11.892;2022-12-29T00:46:35;6.53;;;3.10;;
5199;SDS011;2619;47.868;11.892;2022-12-29T00:49:06;4.40;;;2.87;;
5199;SDS011;2619;47.868;11.892;2022-12-29T00:51:52;6.70;;;3.43;;
5199;SDS011;2619;47.868;11.892;2022-12-29T00:54:18;6.20;;;3.30;;
5199;SDS011;2619;47.868;11.892;2022-12-29T00:56:51;6.63;;;3.90;;
5199;SDS011;2619;47.868;11.892;2022-12-29T00:59:17;4.87;;;3.80;;
5199;SDS011;2619;47.868;11.892;2022-12-29T01:01:43;6.40;;;3.70;;
5199;SDS011;2619;47.868;11.892;2022-12-29T01:04:10;7.30;;;3.57;;
5199;SDS011;2619;47.868;11.892;2022-12-29T01:06:36;5.43;;;3.33;;
5199;SDS011;2619;47.868;11.892;2022-12-29T01:09:03;5.20;;;3.00;;
5199;SDS011;2619;47.868;11.892;2022-12-29T01:11:47;8.33;;;4.50;;
5199;SDS011;2619;47.868;11.892;2022-12-29T01:14:13;5.80;;;3.60;;
5199;SDS011;2619;47.868;11.892;2022-12-29T01:16:39;5.10;;;3.33;;
5199;SDS011;2619;47.868;11.892;2022-12-29T01:19:04;4.10;;;2.93;;
5199;SDS011;2619;47.868;11.892;2022-12-29T01:21:30;5.87;;;4.30;;
5199;SDS011;2619;47.868;11.892;2022-12-29T01:23:57;4.73;;;3.23;;
5199;SDS011;2619;47.868;11.892;2022-12-29T01:26:22;4.80;;;3.60;;
5199;SDS011;2619;47.868;11.892;2022-12-29T01:28:48;9.40;;;4.13;;
5199;SDS011;2619;47.868;11.892;2022-12-29T01:31:14;6.30;;;4.00;;
5199;SDS011;2619;47.868;11.892;2022-12-29T01:33:40;6.10;;;3.30;;
5199;SDS011;2619;47.868;11.892;2022-12-29T01:36:08;6.23;;;3.43;;
5199;SDS011;2619;47.868;11.892;2022-12-29T01:38:39;5.77;;;3.37;;
5199;SDS011;2619;47.868;11.892;2022-12-29T01:41:06;5.80;;;3.00;;
5199;SDS011;2619;47.868;11.892;2022-12-29T01:43:43;4.77;;;3.10;;
5199;SDS011;2619;47.868;11.892;2022-12-29T01:46:13;6.23;;;3.40;;
5199;SDS011;2619;47.868;11.892;2022-12-29T01:48:49;4.70;;;3.33;;
5199;SDS011;2619;47.868;11.892;2022-12-29T01:51:19;5.17;;;3.33;;
5199;SDS011;2619;47.868;11.892;2022-12-29T01:53:48;4.63;;;3.20;;
5199;SDS011;2619;47.868;11.892;2022-12-29T01:56:15;4.80;;;2.80;;
5199;SDS011;2619;47.868;11.892;2022-12-29T01:58:44;4.50;;;3.10;;
5199;SDS011;2619;47.868;11.892;2022-12-29T02:01:12;4.50;;;3.40;;
5199;SDS011;2619;47.868;11.892;2022-12-29T02:03:38;5.47;;;3.10;;
5199;SDS011;2619;47.868;11.892;2022-12-29T02:06:08;4.93;;;3.13;;
5199;SDS011;2619;47.868;11.892;2022-12-29T02:08:42;4.37;;;3.23;;
5199;SDS011;2619;47.868;11.892;2022-12-29T02:11:11;4.10;;;2.37;;
5199;SDS011;2619;47.868;11.892;2022-12-29T02:13:37;5.30;;;3.40;;
5199;SDS011;2619;47.868;11.892;2022-12-29T02:22:04;4.30;;;2.77;;
5199;SDS011;2619;47.868;11.892;2022-12-29T02:32:59;6.30;;;3.47;;
5199;SDS011;2619;47.868;11.892;2022-12-29T02:35:49;5.17;;;2.97;;
5199;SDS011;2619;47.868;11.892;2022-12-29T02:41:19;5.33;;;2.50;;
5199;SDS011;2619;47.868;11.892;2022-12-29T02:43:54;5.17;;;3.57;;
5199;SDS011;2619;47.868;11.892;2022-12-29T02:49:35;13.00;;;3.13;;
5199;SDS011;2619;47.868;11.892;2022-12-29T02:52:10;6.23;;;3.10;;
5199;SDS011;2619;47.868;11.892;2022-12-29T02:54:48;3.93;;;2.70;;
5199;SDS011;2619;47.868;11.892;2022-12-29T02:59:45;5.40;;;3.00;;
5199;SDS011;2619;47.868;11.892;2022-12-29T03:05:09;5.23;;;1.90;;
5199;SDS011;2619;47.868;11.892;2022-12-29T03:16:11;7.67;;;2.70;;
5199;SDS011;2619;47.868;11.892;2022-12-29T03:18:43;5.00;;;2.03;;
5199;SDS011;2619;47.868;11.892;2022-12-29T03:21:16;4.20;;;2.33;;
5199;SDS011;2619;47.868;11.892;2022-12-29T03:24:25;3.00;;;1.70;;
5199;SDS011;2619;47.868;11.892;2022-12-29T03:26:55;3.60;;;1.70;;
5199;SDS011;2619;47.868;11.892;2022-12-29T03:29:23;3.57;;;1.40;;
5199;SDS011;2619;47.868;11.892;2022-12-29T03:31:51;2.80;;;1.47;;
5199;SDS011;2619;47.868;11.892;2022-12-29T03:34:20;2.70;;;1.57;;
5199;SDS011;2619;47.868;11.892;2022-12-29T03:36:49;3.10;;;1.40;;
5199;SDS011;2619;47.868;11.892;2022-12-29T03:39:17;3.00;;;1.30;;
5199;SDS011;2619;47.868;11.892;2022-12-29T03:41:46;3.60;;;2.00;;
5199;SDS011;2619;47.868;11.892;2022-12-29T03:44:16;3.90;;;1.77;;
5199;SDS011;2619;47.868;11.892;2022-12-29T03:46:41;5.33;;;1.60;;
5199;SDS011;2619;47.868;11.892;2022-12-29T03:49:07;2.47;;;1.63;;
5199;SDS011;2619;47.868;11.892;2022-12-29T03:51:33;2.53;;;1.40;;
5199;SDS011;2619;47.868;11.892;2022-12-29T03:53:58;3.33;;;1.80;;
5199;SDS011;2619;47.868;11.892;2022-12-29T03:56:24;3.13;;;1.60;;
5199;SDS011;2619;47.868;11.892;2022-12-29T03:58:49;2.80;;;1.77;;
5199;SDS011;2619;47.868;11.892;2022-12-29T04:01:15;5.43;;;1.50;;
5199;SDS011;2619;47.868;11.892;2022-12-29T04:03:40;3.70;;;1.70;;
5199;SDS011;2619;47.868;11.892;2022-12-29T04:06:06;5.03;;;2.10;;
5199;SDS011;2619;47.868;11.892;2022-12-29T04:08:32;4.63;;;1.40;;
5199;SDS011;2619;47.868;11.892;2022-12-29T04:10:58;3.83;;;1.17;;
5199;SDS011;2619;47.868;11.892;2022-12-29T04:13:23;7.23;;;1.43;;
5199;SDS011;2619;47.868;11.892;2022-12-29T04:15:49;2.50;;;1.50;;
5199;SDS011;2619;47.868;11.892;2022-12-29T04:18:15;2.77;;;1.53;;
5199;SDS011;2619;47.868;11.892;2022-12-29T04:20:41;3.47;;;1.50;;
5199;SDS011;2619;47.868;11.892;2022-12-29T04:23:25;2.87;;;1.83;;
5199;SDS011;2619;47.868;11.892;2022-12-29T04:25:51;3.00;;;1.33;;
5199;SDS011;2619;47.868;11.892;2022-12-29T04:28:17;3.87;;;1.67;;
5199;SDS011;2619;47.868;11.892;2022-12-29T04:30:43;2.70;;;1.73;;
5199;SDS011;2619;47.868;11.892;2022-12-29T04:33:09;4.30;;;2.63;;
5199;SDS011;2619;47.868;11.892;2022-12-29T04:35:35;5.40;;;2.40;;
5199;SDS011;2619;47.868;11.892;2022-12-29T04:38:00;4.87;;;2.70;;
5199;SDS011;2619;47.868;11.892;2022-12-29T04:40:26;3.17;;;1.90;;
5199;SDS011;2619;47.868;11.892;2022-12-29T04:42:52;4.00;;;2.73;;
5199;SDS011;2619;47.868;11.892;2022-12-29T04:45:17;5.10;;;2.47;;
5199;SDS011;2619;47.868;11.892;2022-12-29T04:47:43;4.67;;;2.30;;
5199;SDS011;2619;47.868;11.892;2022-12-29T04:50:09;5.70;;;2.57;;
5199;SDS011;2619;47.868;11.892;2022-12-29T04:52:35;5.87;;;2.70;;
5199;SDS011;2619;47.868;11.892;2022-12-29T04:55:00;4.47;;;2.20;;
5199;SDS011;2619;47.868;11.892;2022-12-29T04:57:26;3.20;;;2.00;;
5199;SDS011;2619;47.868;11.892;2022-12-29T04:59:52;8.10;;;4.40;;
5199;SDS011;2619;47.868;11.892;2022-12-29T05:02:18;5.13;;;3.10;;
5199;SDS011;2619;47.868;11.892;2022-12-29T05:04:44;8.20;;;4.47;;
5199;SDS011;2619;47.868;11.892;2022-12-29T05:07:09;4.33;;;3.03;;
5199;SDS011;2619;47.868;11.892;2022-12-29T05:09:35;17.83;;;8.53;;
5199;SDS011;2619;47.868;11.892;2022-12-29T05:12:01;19.57;;;9.70;;
5199;SDS011;2619;47.868;11.892;2022-12-29T05:14:26;9.10;;;5.90;;
5199;SDS011;2619;47.868;11.892;2022-12-29T05:16:52;9.10;;;6.10;;
5199;SDS011;2619;47.868;11.892;2022-12-29T05:19:17;5.63;;;4.00;;
5199;SDS011;2619;47.868;11.892;2022-12-29T05:21:43;13.10;;;5.03;;
5199;SDS011;2619;47.868;11.892;2022-12-29T05:24:09;8.10;;;5.17;;
5199;SDS011;2619;47.868;11.892;2022-12-29T05:26:34;5.90;;;3.57;;
5199;SDS011;2619;47.868;11.892;2022-12-29T05:29:00;5.43;;;2.77;;
5199;SDS011;2619;47.868;11.892;2022-12-29T05:31:26;5.50;;;3.90;;
5199;SDS011;2619;47.868;11.892;2022-12-29T05:33:51;5.53;;;3.53;;
5199;SDS011;2619;47.868;11.892;2022-12-29T05:36:17;4.40;;;2.80;;
5199;SDS011;2619;47.868;11.892;2022-12-29T05:38:43;4.70;;;3.47;;
5199;SDS011;2619;47.868;11.892;2022-12-29T05:41:08;5.00;;;3.50;;
5199;SDS011;2619;47.868;11.892;2022-12-29T05:43:34;5.80;;;3.57;;
5199;SDS011;2619;47.868;11.892;2022-12-29T05:46:00;4.93;;;3.10;;
5199;SDS011;2619;47.868;11.892;2022-12-29T05:48:26;7.60;;;4.37;;
5199;SDS011;2619;47.868;11.892;2022-12-29T05:50:52;8.40;;;4.20;;
5199;SDS011;2619;47.868;11.892;2022-12-29T05:53:17;6.30;;;3.83;;
5199;SDS011;2619;47.868;11.892;2022-12-29T05:55:44;5.37;;;3.50;;
5199;SDS011;2619;47.868;11.892;2022-12-29T05:58:11;7.80;;;3.83;;
5199;SDS011;2619;47.868;11.892;2022-12-29T06:00:37;8.23;;;4.50;;
5199;SDS011;2619;47.868;11.892;2022-12-29T06:03:03;8.53;;;4.47;;
5199;SDS011;2619;47.868;11.892;2022-12-29T06:05:29;5.40;;;3.80;;
5199;SDS011;2619;47.868;11.892;2022-12-29T06:07:54;5.60;;;3.60;;
5199;SDS011;2619;47.868;11.892;2022-12-29T06:10:20;5.13;;;3.63;;
5199;SDS011;2619;47.868;11.892;2022-12-29T06:12:46;8.47;;;4.50;;
5199;SDS011;2619;47.868;11.892;2022-12-29T06:15:12;4.50;;;2.70;;
5199;SDS011;2619;47.868;11.892;2022-12-29T06:17:37;6.63;;;3.37;;
5199;SDS011;2619;47.868;11.892;2022-12-29T06:20:04;5.90;;;3.90;;
5199;SDS011;2619;47.868;11.892;2022-12-29T06:22:30;4.80;;;2.87;;
5199;SDS011;2619;47.868;11.892;2022-12-29T06:24:55;4.30;;;3.20;;
5199;SDS011;2619;47.868;11.892;2022-12-29T06:27:21;5.73;;;4.60;;
5199;SDS011;2619;47.868;11.892;2022-12-29T06:29:47;9.00;;;4.53;;
5199;SDS011;2619;47.868;11.892;2022-12-29T06:32:12;6.13;;;3.70;;
5199;SDS011;2619;47.868;11.892;2022-12-29T06:34:38;6.97;;;4.00;;
5199;SDS011;2619;47.868;11.892;2022-12-29T06:37:04;10.00;;;5.70;;
5199;SDS011;2619;47.868;11.892;2022-12-29T06:39:29;23.63;;;9.60;;
5199;SDS011;2619;47.868;11.892;2022-12-29T06:41:55;20.47;;;9.73;;
5199;SDS011;2619;47.868;11.892;2022-12-29T06:44:21;15.40;;;6.87;;
5199;SDS011;2619;47.868;11.892;2022-12-29T06:46:47;11.93;;;7.10;;
5199;SDS011;2619;47.868;11.892;2022-12-29T06:49:13;16.43;;;6.97;;
5199;SDS011;2619;47.868;11.892;2022-12-29T06:51:38;15.17;;;7.97;;
5199;SDS011;2619;47.868;11.892;2022-12-29T06:54:04;10.13;;;5.80;;
5199;SDS011;2619;47.868;11.892;2022-12-29T06:56:30;12.17;;;6.70;;
5199;SDS011;2619;47.868;11.892;2022-12-29T06:58:56;14.10;;;7.27;;
5199;SDS011;2619;47.868;11.892;2022-12-29T07:01:21;9.90;;;6.80;;
5199;SDS011;2619;47.868;11.892;2022-12-29T07:03:47;10.30;;;7.70;;
5199;SDS011;2619;47.868;11.892;2022-12-29T07:06:13;12.20;;;7.80;;
5199;SDS011;2619;47.868;11.892;2022-12-29T07:08:39;13.17;;;9.17;;
5199;SDS011;2619;47.868;11.892;2022-12-29T07:11:04;11.13;;;8.30;;
5199;SDS011;2619;47.868;11.892;2022-12-29T07:13:30;9.80;;;7.10;;
5199;SDS011;2619;47.868;11.892;2022-12-29T07:15:56;9.30;;;5.20;;
5199;SDS011;2619;47.868;11.892;2022-12-29T07:18:21;8.10;;;4.80;;
5199;SDS011;2619;47.868;11.892;2022-12-29T07:20:47;10.60;;;6.63;;
5199;SDS011;2619;47.868;11.892;2022-12-29T07:23:12;9.90;;;5.83;;
5199;SDS011;2619;47.868;11.892;2022-12-29T07:25:38;7.90;;;4.50;;
5199;SDS011;2619;47.868;11.892;2022-12-29T07:28:06;10.47;;;6.23;;
5199;SDS011;2619;47.868;11.892;2022-12-29T07:30:31;7.73;;;5.50;;
5199;SDS011;2619;47.868;11.892;2022-12-29T07:32:57;11.33;;;5.93;;
5199;SDS011;2619;47.868;11.892;2022-12-29T07:35:23;12.70;;;7.07;;
5199;SDS011;2619;47.868;11.892;2022-12-29T07:37:48;11.43;;;7.40;;
5199;SDS011;2619;47.868;11.892;2022-12-29T07:40:14;12.17;;;8.13;;
5199;SDS011;2619;47.868;11.892;2022-12-29T07:42:40;5.53;;;3.23;;
5199;SDS011;2619;47.868;11.892;2022-12-29T07:45:05;10.40;;;6.93;;
5199;SDS011;2619;47.868;11.892;2022-12-29T07:47:31;10.17;;;5.57;;
5199;SDS011;2619;47.868;11.892;2022-12-29T07:49:57;9.97;;;6.40;;
5199;SDS011;2619;47.868;11.892;2022-12-29T07:52:23;9.43;;;6.63;;
5199;SDS011;2619;47.868;11.892;2022-12-29T07:54:48;12.00;;;7.03;;
5199;SDS011;2619;47.868;11.892;2022-12-29T07:57:14;10.70;;;7.40;;
5199;SDS011;2619;47.868;11.892;2022-12-29T07:59:39;9.03;;;7.33;;
5199;SDS011;2619;47.868;11.892;2022-12-29T08:02:05;12.47;;;8.23;;
5199;SDS011;2619;47.868;11.892;2022-12-29T08:04:34;11.60;;;7.33;;
5199;SDS011;2619;47.868;11.892;2022-12-29T08:06:59;9.40;;;6.20;;
5199;SDS011;2619;47.868;11.892;2022-12-29T08:09:25;12.60;;;7.80;;
5199;SDS011;2619;47.868;11.892;2022-12-29T08:11:50;11.60;;;6.90;;
5199;SDS011;2619;47.868;11.892;2022-12-29T08:14:16;11.77;;;7.60;;
5199;SDS011;2619;47.868;11.892;2022-12-29T08:16:42;13.80;;;7.77;;
5199;SDS011;2619;47.868;11.892;2022-12-29T08:19:09;14.37;;;8.43;;
5199;SDS011;2619;47.868;11.892;2022-12-29T08:21:36;11.73;;;8.50;;
5199;SDS011;2619;47.868;11.892;2022-12-29T08:24:02;11.30;;;6.70;;
5199;SDS011;2619;47.868;11.892;2022-12-29T08:26:27;10.53;;;7.60;;
5199;SDS011;2619;47.868;11.892;2022-12-29T08:28:53;11.10;;;7.57;;
5199;SDS011;2619;47.868;11.892;2022-12-29T08:31:20;12.03;;;8.97;;
5199;SDS011;2619;47.868;11.892;2022-12-29T08:33:47;12.27;;;8.40;;
5199;SDS011;2619;47.868;11.892;2022-12-29T08:36:12;13.43;;;7.77;;
5199;SDS011;2619;47.868;11.892;2022-12-29T08:38:38;13.70;;;9.83;;
5199;SDS011;2619;47.868;11.892;2022-12-29T08:41:03;14.80;;;8.90;;
5199;SDS011;2619;47.868;11.892;2022-12-29T08:43:29;18.07;;;11.70;;
5199;SDS011;2619;47.868;11.892;2022-12-29T08:45:56;16.40;;;11.70;;
5199;SDS011;2619;47.868;11.892;2022-12-29T08:48:22;14.60;;;10.40;;
5199;SDS011;2619;47.868;11.892;2022-12-29T08:50:49;11.80;;;8.90;;
5199;SDS011;2619;47.868;11.892;2022-12-29T08:53:15;12.83;;;10.40;;
5199;SDS011;2619;47.868;11.892;2022-12-29T08:55:41;14.43;;;10.30;;
5199;SDS011;2619;47.868;11.892;2022-12-29T08:58:06;14.57;;;9.53;;
5199;SDS011;2619;47.868;11.892;2022-12-29T09:00:32;16.37;;;9.40;;
5199;SDS011;2619;47.868;11.892;2022-12-29T09:02:58;13.53;;;7.80;;
5199;SDS011;2619;47.868;11.892;2022-12-29T09:05:23;14.80;;;9.30;;
5199;SDS011;2619;47.868;11.892;2022-12-29T09:07:49;12.57;;;7.43;;
5199;SDS011;2619;47.868;11.892;2022-12-29T09:10:14;11.40;;;7.47;;
5199;SDS011;2619;47.868;11.892;2022-12-29T09:12:40;9.17;;;6.80;;
5199;SDS011;2619;47.868;11.892;2022-12-29T09:15:06;7.97;;;6.20;;
5199;SDS011;2619;47.868;11.892;2022-12-29T09:17:33;10.17;;;6.33;;
5199;SDS011;2619;47.868;11.892;2022-12-29T09:20:09;10.40;;;6.50;;
5199;SDS011;2619;47.868;11.892;2022-12-29T09:22:36;11.20;;;7.37;;
5199;SDS011;2619;47.868;11.892;2022-12-29T09:25:02;8.70;;;6.83;;
5199;SDS011;2619;47.868;11.892;2022-12-29T09:27:28;11.20;;;7.97;;
5199;SDS011;2619;47.868;11.892;2022-12-29T09:29:54;10.50;;;7.30;;
5199;SDS011;2619;47.868;11.892;2022-12-29T09:32:20;16.83;;;8.00;;
5199;SDS011;2619;47.868;11.892;2022-12-29T09:34:46;10.40;;;7.93;;
5199;SDS011;2619;47.868;11.892;2022-12-29T09:37:11;13.30;;;10.53;;
5199;SDS011;2619;47.868;11.892;2022-12-29T09:39:37;20.23;;;14.60;;
5199;SDS011;2619;47.868;11.892;2022-12-29T09:42:09;24.20;;;14.00;;
5199;SDS011;2619;47.868;11.892;2022-12-29T09:47:16;24.20;;;15.53;;
5199;SDS011;2619;47.868;11.892;2022-12-29T09:49:44;18.00;;;12.90;;
5199;SDS011;2619;47.868;11.892;2022-12-29T09:52:16;18.30;;;12.83;;
5199;SDS011;2619;47.868;11.892;2022-12-29T09:57:29;16.47;;;10.97;;
5199;SDS011;2619;47.868;11.892;2022-12-29T10:00:11;48.27;;;34.27;;
5199;SDS011;2619;47.868;11.892;2022-12-29T10:03:03;16.77;;;11.53;;
5199;SDS011;2619;47.868;11.892;2022-12-29T10:05:39;14.30;;;9.17;;
5199;SDS011;2619;47.868;11.892;2022-12-29T10:10:52;13.90;;;9.60;;
5199;SDS011;2619;47.868;11.892;2022-12-29T10:16:09;13.40;;;9.57;;
5199;SDS011;2619;47.868;11.892;2022-12-29T10:25:06;14.07;;;10.20;;
5199;SDS011;2619;47.868;11.892;2022-12-29T10:27:46;12.23;;;10.10;;
5199;SDS011;2619;47.868;11.892;2022-12-29T10:30:13;12.00;;;9.80;;
5199;SDS011;2619;47.868;11.892;2022-12-29T10:32:41;13.77;;;10.50;;
5199;SDS011;2619;47.868;11.892;2022-12-29T10:35:12;14.20;;;10.10;;
5199;SDS011;2619;47.868;11.892;2022-12-29T10:40:14;23.60;;;14.40;;
5199;SDS011;2619;47.868;11.892;2022-12-29T10:42:50;18.73;;;12.50;;
5199;SDS011;2619;47.868;11.892;2022-12-29T10:45:19;14.77;;;9.37;;
5199;SDS011;2619;47.868;11.892;2022-12-29T10:48:12;10.10;;;7.10;;
5199;SDS011;2619;47.868;11.892;2022-12-29T10:50:44;10.23;;;6.40;;
5199;SDS011;2619;47.868;11.892;2022-12-29T10:53:12;12.03;;;6.73;;
5199;SDS011;2619;47.868;11.892;2022-12-29T10:55:45;7.97;;;5.73;;
5199;SDS011;2619;47.868;11.892;2022-12-29T10:58:12;6.40;;;5.17;;
5199;SDS011;2619;47.868;11.892;2022-12-29T11:00:39;8.07;;;4.30;;
5199;SDS011;2619;47.868;11.892;2022-12-29T11:06:25;6.77;;;4.60;;
5199;SDS011;2619;47.868;11.892;2022-12-29T11:08:53;10.13;;;6.77;;
5199;SDS011;2619;47.868;11.892;2022-12-29T11:11:25;6.40;;;4.40;;
5199;SDS011;2619;47.868;11.892;2022-12-29T11:13:57;5.87;;;4.20;;
5199;SDS011;2619;47.868;11.892;2022-12-29T11:16:28;7.20;;;4.30;;
5199;SDS011;2619;47.868;11.892;2022-12-29T11:18:59;9.20;;;6.13;;
5199;SDS011;2619;47.868;11.892;2022-12-29T11:21:37;7.30;;;5.87;;
5199;SDS011;2619;47.868;11.892;2022-12-29T11:24:18;9.50;;;6.10;;
5199;SDS011;2619;47.868;11.892;2022-12-29T11:26:48;9.60;;;6.77;;
5199;SDS011;2619;47.868;11.892;2022-12-29T11:29:17;10.03;;;7.13;;
5199;SDS011;2619;47.868;11.892;2022-12-29T11:31:47;9.97;;;6.50;;
5199;SDS011;2619;47.868;11.892;2022-12-29T11:34:22;8.23;;;5.90;;
5199;SDS011;2619;47.868;11.892;2022-12-29T11:36:51;7.10;;;4.90;;
5199;SDS011;2619;47.868;11.892;2022-12-29T11:39:23;6.83;;;4.70;;
5199;SDS011;2619;47.868;11.892;2022-12-29T11:41:52;7.90;;;4.93;;
5199;SDS011;2619;47.868;11.892;2022-12-29T11:44:19;6.07;;;4.13;;
5199;SDS011;2619;47.868;11.892;2022-12-29T11:46:46;6.10;;;4.10;;
5199;SDS011;2619;47.868;11.892;2022-12-29T11:49:18;6.47;;;4.30;;
5199;SDS011;2619;47.868;11.892;2022-12-29T11:51:47;5.87;;;4.53;;
5199;SDS011;2619;47.868;11.892;2022-12-29T11:54:25;6.23;;;4.37;;
5199;SDS011;2619;47.868;11.892;2022-12-29T11:56:55;7.00;;;4.30;;
5199;SDS011;2619;47.868;11.892;2022-12-29T12:01:56;6.03;;;3.60;;
5199;SDS011;2619;47.868;11.892;2022-12-29T12:04:24;5.17;;;3.00;;
5199;SDS011;2619;47.868;11.892;2022-12-29T12:09:22;6.20;;;3.30;;
5199;SDS011;2619;47.868;11.892;2022-12-29T12:11:54;4.80;;;3.50;;
5199;SDS011;2619;47.868;11.892;2022-12-29T12:17:03;5.00;;;3.10;;
5199;SDS011;2619;47.868;11.892;2022-12-29T12:19:41;4.30;;;2.87;;
5199;SDS011;2619;47.868;11.892;2022-12-29T12:22:29;5.13;;;3.93;;
5199;SDS011;2619;47.868;11.892;2022-12-29T12:25:02;6.10;;;3.57;;
5199;SDS011;2619;47.868;11.892;2022-12-29T12:27:36;4.83;;;3.50;;
5199;SDS011;2619;47.868;11.892;2022-12-29T12:30:21;5.97;;;4.30;;
5199;SDS011;2619;47.868;11.892;2022-12-29T12:35:26;6.23;;;3.77;;
5199;SDS011;2619;47.868;11.892;2022-12-29T12:51:53;4.10;;;2.70;;
5199;SDS011;2619;47.868;11.892;2022-12-29T12:59:46;3.97;;;2.33;;
5199;SDS011;2619;47.868;11.892;2022-12-29T13:16:13;3.97;;;2.53;;
5199;SDS011;2619;47.868;11.892;2022-12-29T13:24:07;4.87;;;2.60;;
5199;SDS011;2619;47.868;11.892;2022-12-29T13:26:38;4.97;;;2.60;;
5199;SDS011;2619;47.868;11.892;2022-12-29T13:29:15;3.47;;;2.13;;
5199;SDS011;2619;47.868;11.892;2022-12-29T13:34:21;3.33;;;2.00;;
5199;SDS011;2619;47.868;11.892;2022-12-29T13:37:10;4.40;;;2.47;;
5199;SDS011;2619;47.868;11.892;2022-12-29T13:39:39;5.17;;;2.60;;
5199;SDS011;2619;47.868;11.892;2022-12-29T13:42:09;6.57;;;2.93;;
5199;SDS011;2619;47.868;11.892;2022-12-29T13:44:41;3.63;;;2.20;;
5199;SDS011;2619;47.868;11.892;2022-12-29T13:49:48;4.60;;;2.77;;
5199;SDS011;2619;47.868;11.892;2022-12-29T13:52:20;3.37;;;2.60;;
5199;SDS011;2619;47.868;11.892;2022-12-29T14:00:21;4.23;;;2.40;;
5199;SDS011;2619;47.868;11.892;2022-12-29T14:02:54;4.20;;;2.30;;
5199;SDS011;2619;47.868;11.892;2022-12-29T14:06:03;4.40;;;3.00;;
5199;SDS011;2619;47.868;11.892;2022-12-29T14:08:30;5.20;;;2.87;;
5199;SDS011;2619;47.868;11.892;2022-12-29T14:11:00;3.70;;;2.67;;
5199;SDS011;2619;47.868;11.892;2022-12-29T14:13:33;4.50;;;2.60;;
5199;SDS011;2619;47.868;11.892;2022-12-29T14:16:04;7.40;;;2.97;;
5199;SDS011;2619;47.868;11.892;2022-12-29T14:18:33;4.40;;;2.60;;
5199;SDS011;2619;47.868;11.892;2022-12-29T14:23:41;3.97;;;2.50;;
5199;SDS011;2619;47.868;11.892;2022-12-29T14:26:33;3.43;;;2.60;;
5199;SDS011;2619;47.868;11.892;2022-12-29T14:56:56;8.00;;;3.40;;
5199;SDS011;2619;47.868;11.892;2022-12-29T15:00:29;4.17;;;2.40;;
5199;SDS011;2619;47.868;11.892;2022-12-29T15:03:59;4.90;;;2.70;;
5199;SDS011;2619;47.868;11.892;2022-12-29T15:06:27;7.47;;;4.50;;
5199;SDS011;2619;47.868;11.892;2022-12-29T15:09:14;10.33;;;3.60;;
5199;SDS011;2619;47.868;11.892;2022-12-29T15:11:57;4.97;;;3.53;;
5199;SDS011;2619;47.868;11.892;2022-12-29T15:18:28;5.03;;;3.70;;
5199;SDS011;2619;47.868;11.892;2022-12-29T15:35:36;7.03;;;4.87;;
5199;SDS011;2619;47.868;11.892;2022-12-29T15:39:31;4.47;;;3.20;;
5199;SDS011;2619;47.868;11.892;2022-12-29T15:56:05;6.37;;;4.33;;
5199;SDS011;2619;47.868;11.892;2022-12-29T15:59:23;10.57;;;5.67;;
5199;SDS011;2619;47.868;11.892;2022-12-29T16:05:17;6.03;;;3.30;;
5199;SDS011;2619;47.868;11.892;2022-12-29T16:07:53;11.30;;;5.90;;
5199;SDS011;2619;47.868;11.892;2022-12-29T16:10:37;12.70;;;9.30;;
5199;SDS011;2619;47.868;11.892;2022-12-29T16:13:16;18.80;;;10.83;;
5199;SDS011;2619;47.868;11.892;2022-12-29T16:15:47;16.87;;;11.37;;
5199;SDS011;2619;47.868;11.892;2022-12-29T16:18:55;14.40;;;9.30;;
5199;SDS011;2619;47.868;11.892;2022-12-29T16:21:32;10.17;;;6.80;;
5199;SDS011;2619;47.868;11.892;2022-12-29T16:24:02;9.40;;;6.50;;
5199;SDS011;2619;47.868;11.892;2022-12-29T16:26:34;11.57;;;7.17;;
5199;SDS011;2619;47.868;11.892;2022-12-29T16:29:01;14.80;;;8.50;;
5199;SDS011;2619;47.868;11.892;2022-12-29T16:31:33;9.30;;;7.27;;
5199;SDS011;2619;47.868;11.892;2022-12-29T16:34:21;11.77;;;8.20;;
5199;SDS011;2619;47.868;11.892;2022-12-29T16:36:54;14.77;;;9.93;;
5199;SDS011;2619;47.868;11.892;2022-12-29T16:39:33;15.47;;;9.20;;
5199;SDS011;2619;47.868;11.892;2022-12-29T16:47:54;21.60;;;12.37;;
5199;SDS011;2619;47.868;11.892;2022-12-29T16:51:13;15.60;;;10.40;;
5199;SDS011;2619;47.868;11.892;2022-12-29T16:53:52;18.90;;;11.37;;
5199;SDS011;2619;47.868;11.892;2022-12-29T16:56:42;19.17;;;11.40;;
5199;SDS011;2619;47.868;11.892;2022-12-29T17:00:07;11.53;;;7.90;;
5199;SDS011;2619;47.868;11.892;2022-12-29T17:02:56;11.97;;;7.63;;
5199;SDS011;2619;47.868;11.892;2022-12-29T17:05:24;10.03;;;6.60;;
5199;SDS011;2619;47.868;11.892;2022-12-29T17:07:50;10.80;;;6.70;;
5199;SDS011;2619;47.868;11.892;2022-12-29T17:10:18;8.33;;;5.93;;
5199;SDS011;2619;47.868;11.892;2022-12-29T17:16:02;6.63;;;4.40;;
5199;SDS011;2619;47.868;11.892;2022-12-29T17:18:52;6.70;;;4.40;;
5199;SDS011;2619;47.868;11.892;2022-12-29T17:21:27;6.47;;;4.20;;
5199;SDS011;2619;47.868;11.892;2022-12-29T17:23:56;8.07;;;5.00;;
5199;SDS011;2619;47.868;11.892;2022-12-29T17:26:22;10.33;;;5.63;;
5199;SDS011;2619;47.868;11.892;2022-12-29T17:28:51;10.50;;;6.10;;
5199;SDS011;2619;47.868;11.892;2022-12-29T17:31:18;8.30;;;5.00;;
5199;SDS011;2619;47.868;11.892;2022-12-29T17:33:45;6.03;;;4.20;;
5199;SDS011;2619;47.868;11.892;2022-12-29T17:36:13;7.63;;;4.50;;
5199;SDS011;2619;47.868;11.892;2022-12-29T17:38:39;6.50;;;3.93;;
5199;SDS011;2619;47.868;11.892;2022-12-29T17:41:08;7.27;;;3.73;;
5199;SDS011;2619;47.868;11.892;2022-12-29T17:43:39;6.70;;;3.40;;
5199;SDS011;2619;47.868;11.892;2022-12-29T17:52:17;8.17;;;4.37;;
5199;SDS011;2619;47.868;11.892;2022-12-29T17:54:48;12.23;;;4.37;;
5199;SDS011;2619;47.868;11.892;2022-12-29T17:57:16;5.03;;;3.23;;
5199;SDS011;2619;47.868;11.892;2022-12-29T17:59:43;6.13;;;3.40;;
5199;SDS011;2619;47.868;11.892;2022-12-29T18:02:18;8.10;;;3.30;;
5199;SDS011;2619;47.868;11.892;2022-12-29T18:04:46;4.57;;;3.00;;
5199;SDS011;2619;47.868;11.892;2022-12-29T18:07:12;6.00;;;2.67;;
5199;SDS011;2619;47.868;11.892;2022-12-29T18:09:38;4.30;;;3.00;;
5199;SDS011;2619;47.868;11.892;2022-12-29T18:15:46;6.70;;;4.83;;
5199;SDS011;2619;47.868;11.892;2022-12-29T18:18:14;5.53;;;3.53;;
5199;SDS011;2619;47.868;11.892;2022-12-29T18:20:42;6.77;;;4.00;;
5199;SDS011;2619;47.868;11.892;2022-12-29T18:23:25;11.43;;;6.27;;
5199;SDS011;2619;47.868;11.892;2022-12-29T18:25:54;20.00;;;9.37;;
5199;SDS011;2619;47.868;11.892;2022-12-29T18:28:25;31.97;;;21.47;;
5199;SDS011;2619;47.868;11.892;2022-12-29T18:30:51;29.10;;;19.30;;
5199;SDS011;2619;47.868;11.892;2022-12-29T18:33:19;21.53;;;15.13;;
5199;SDS011;2619;47.868;11.892;2022-12-29T18:38:24;21.33;;;14.17;;
5199;SDS011;2619;47.868;11.892;2022-12-29T18:40:51;25.90;;;14.77;;
5199;SDS011;2619;47.868;11.892;2022-12-29T18:43:17;18.17;;;12.00;;